Time;durP1;ratioP1;P1;durP2;ratioP2;P2;SDS_P1;SDS_P2;PMS_P1;PMS_P2;Temp;Humidity;BMP_temperature;BMP_pressure;BME280_temperature;BME280_humidity;BME280_pressure;Samples;Min_cycle;Max_cycle;Signal;HPM_P1;HPM_P2
2021/12/31 00:00:34;;;;;;;440.33;154.43;;;;;;;;;;5033780;28;20104;-80
2021/12/31 00:03:00;;;;;;;429.40;152.20;;;;;;;;;;5015964;28;20033;-80
2021/12/31 00:05:26;;;;;;;438.67;151.95;;;;;;;;;;5015875;28;20037;-80
2021/12/31 00:07:53;;;;;;;471.85;154.02;;;;;;;;;;5033498;28;20044;-80
2021/12/31 00:10:19;;;;;;;447.83;151.30;;;;;;;;;;5033660;28;20191;-80
2021/12/31 00:12:45;;;;;;;483.23;161.15;;;;;;;;;;5015887;28;20090;-80
2021/12/31 00:15:13;;;;;;;423.88;146.30;;;;;;;;;;5015888;28;20117;-80
2021/12/31 00:17:39;;;;;;;428.30;149.45;;;;;;;;;;5015958;28;20480;-80
2021/12/31 00:20:12;;;;;;;434.85;147.93;;;;;;;;;;5015841;28;20033;-80
2021/12/31 00:25:24;;;;;;;411.70;142.85;;;;;;;;;;5033671;28;20498;-80
2021/12/31 00:27:50;;;;;;;441.17;147.43;;;;;;;;;;5015520;28;20037;-80
2021/12/31 00:30:16;;;;;;;432.45;150.25;;;;;;;;;;5015670;28;20080;-81
2021/12/31 00:32:43;;;;;;;444.10;149.00;;;;;;;;;;5015332;28;20053;-80
2021/12/31 00:35:09;;;;;;;437.35;148.38;;;;;;;;;;5033441;28;20038;-80
2021/12/31 00:37:37;;;;;;;436.13;150.00;;;;;;;;;;5033325;28;20080;-80
2021/12/31 00:40:05;;;;;;;396.25;136.82;;;;;;;;;;5015677;28;20034;-80
2021/12/31 00:42:31;;;;;;;394.50;137.13;;;;;;;;;;5015740;28;20030;-80
2021/12/31 00:44:58;;;;;;;408.73;144.88;;;;;;;;;;5015529;28;20041;-80
2021/12/31 00:47:24;;;;;;;401.13;138.65;;;;;;;;;;5033578;28;20029;-80
2021/12/31 00:49:50;;;;;;;396.73;139.82;;;;;;;;;;5033260;28;20503;-80
2021/12/31 00:52:17;;;;;;;395.38;140.30;;;;;;;;;;5015617;28;20124;-80
2021/12/31 00:54:44;;;;;;;433.98;149.35;;;;;;;;;;5015576;28;20034;-80
2021/12/31 00:57:10;;;;;;;576.13;178.73;;;;;;;;;;5033187;28;20030;-80
2021/12/31 00:59:37;;;;;;;627.38;179.07;;;;;;;;;;5015121;28;20036;-80
2021/12/31 01:02:05;;;;;;;542.47;171.25;;;;;;;;;;5015336;28;20025;-80
2021/12/31 01:04:32;;;;;;;524.45;166.38;;;;;;;;;;5033405;28;20029;-80
2021/12/31 01:06:59;;;;;;;523.00;162.75;;;;;;;;;;5019089;28;20068;-80
2021/12/31 01:09:26;;;;;;;536.72;166.25;;;;;;;;;;5036879;28;20026;-80
2021/12/31 01:11:52;;;;;;;536.05;168.27;;;;;;;;;;5036893;28;20029;-80
2021/12/31 01:14:30;;;;;;;503.42;159.35;;;;;;;;;;5018834;28;20472;-80
2021/12/31 01:17:03;;;;;;;502.85;153.65;;;;;;;;;;5036845;28;20384;-80
2021/12/31 01:19:46;;;;;;;446.42;145.68;;;;;;;;;;5018760;28;20033;-80
2021/12/31 01:22:22;;;;;;;468.80;149.95;;;;;;;;;;5018680;28;20129;-82
2021/12/31 01:24:48;;;;;;;462.63;150.10;;;;;;;;;;5018473;28;20034;-80
2021/12/31 01:27:15;;;;;;;475.50;151.88;;;;;;;;;;5018606;28;20029;-80
2021/12/31 01:29:41;;;;;;;455.25;147.70;;;;;;;;;;5018427;28;20026;-80
2021/12/31 01:32:07;;;;;;;455.25;151.68;;;;;;;;;;5036171;28;20128;-80
2021/12/31 01:34:34;;;;;;;492.17;158.82;;;;;;;;;;5018403;28;20038;-80
2021/12/31 01:37:01;;;;;;;472.25;156.20;;;;;;;;;;5018206;28;20423;-80
2021/12/31 01:39:27;;;;;;;497.05;162.73;;;;;;;;;;5018452;28;20167;-80
2021/12/31 01:41:57;;;;;;;473.15;156.70;;;;;;;;;;5018258;28;20034;-79
2021/12/31 01:44:26;;;;;;;442.25;145.50;;;;;;;;;;5036036;28;20056;-80
2021/12/31 01:46:54;;;;;;;438.90;146.60;;;;;;;;;;5018196;28;20030;-80
2021/12/31 01:49:22;;;;;;;454.98;157.77;;;;;;;;;;5035962;28;20484;-80
2021/12/31 01:51:48;;;;;;;496.58;156.45;;;;;;;;;;5035841;28;20041;-80
2021/12/31 01:54:15;;;;;;;486.45;162.80;;;;;;;;;;5017993;28;20025;-80
2021/12/31 01:56:41;;;;;;;523.35;162.90;;;;;;;;;;5017930;28;20484;-80
2021/12/31 01:59:08;;;;;;;468.73;154.45;;;;;;;;;;5017952;28;20041;-80
2021/12/31 02:01:35;;;;;;;485.27;153.88;;;;;;;;;;5035727;28;20037;-80
2021/12/31 02:04:02;;;;;;;463.70;148.15;;;;;;;;;;5017784;28;20033;-82
2021/12/31 02:06:28;;;;;;;420.40;141.82;;;;;;;;;;5036072;28;20067;-80
2021/12/31 02:08:56;;;;;;;459.70;155.68;;;;;;;;;;5017758;28;20041;-80
2021/12/31 02:11:22;;;;;;;489.80;156.45;;;;;;;;;;5017785;28;20030;-80
2021/12/31 02:13:48;;;;;;;504.63;166.02;;;;;;;;;;5017737;28;20083;-80
2021/12/31 02:16:15;;;;;;;477.52;168.75;;;;;;;;;;5035266;28;20037;-80
2021/12/31 02:18:43;;;;;;;489.27;169.25;;;;;;;;;;5017458;28;20041;-81
2021/12/31 02:21:11;;;;;;;494.27;174.55;;;;;;;;;;5017560;28;20032;-80
2021/12/31 02:23:46;;;;;;;498.85;171.65;;;;;;;;;;5017508;28;20041;-80
2021/12/31 02:26:13;;;;;;;512.85;171.88;;;;;;;;;;5017535;28;20041;-80
2021/12/31 02:28:40;;;;;;;520.22;172.23;;;;;;;;;;5034867;28;20048;-80
2021/12/31 02:31:06;;;;;;;478.55;161.57;;;;;;;;;;5017399;28;20091;-81
2021/12/31 02:33:33;;;;;;;508.80;164.85;;;;;;;;;;5034841;28;20057;-80
2021/12/31 02:36:00;;;;;;;467.98;158.85;;;;;;;;;;5017374;28;20034;-82
2021/12/31 02:38:27;;;;;;;476.90;156.80;;;;;;;;;;5017306;28;20036;-80
2021/12/31 02:40:53;;;;;;;449.48;150.25;;;;;;;;;;5017228;28;20030;-80
2021/12/31 02:43:20;;;;;;;456.83;152.25;;;;;;;;;;5017139;28;20069;-80
2021/12/31 02:45:47;;;;;;;450.48;150.27;;;;;;;;;;5017157;28;20034;-81
2021/12/31 02:48:14;;;;;;;446.27;147.15;;;;;;;;;;5017024;28;20045;-80
2021/12/31 02:50:42;;;;;;;441.85;140.23;;;;;;;;;;5017017;28;20121;-80
2021/12/31 02:53:15;;;;;;;390.83;134.75;;;;;;;;;;5016999;28;20038;-80
2021/12/31 02:55:44;;;;;;;339.73;128.77;;;;;;;;;;5035089;28;20036;-80
2021/12/31 02:58:11;;;;;;;397.25;131.52;;;;;;;;;;5016916;28;20037;-80
2021/12/31 03:00:39;;;;;;;395.60;134.85;;;;;;;;;;5016772;28;20119;-80
2021/12/31 03:03:08;;;;;;;359.40;128.23;;;;;;;;;;5034287;28;20132;-80
2021/12/31 03:05:35;;;;;;;364.10;125.22;;;;;;;;;;5016677;28;20369;-80
2021/12/31 03:08:03;;;;;;;340.17;124.55;;;;;;;;;;5016702;28;20033;-80
2021/12/31 03:10:30;;;;;;;335.67;129.20;;;;;;;;;;5016722;28;20041;-80
2021/12/31 03:12:57;;;;;;;329.63;119.10;;;;;;;;;;5016655;28;20120;-80
2021/12/31 03:15:25;;;;;;;323.00;120.00;;;;;;;;;;5016637;28;20072;-80
2021/12/31 03:17:52;;;;;;;301.73;108.57;;;;;;;;;;5016576;28;20056;-80
2021/12/31 03:20:36;;;;;;;285.58;103.90;;;;;;;;;;5016579;28;20025;-80
2021/12/31 03:23:03;;;;;;;248.50;98.55;;;;;;;;;;5016451;28;20033;-80
2021/12/31 03:25:29;;;;;;;242.80;93.28;;;;;;;;;;5034099;28;20033;-80
2021/12/31 03:27:56;;;;;;;230.23;90.03;;;;;;;;;;5033395;28;20362;-80
2021/12/31 03:30:22;;;;;;;204.60;81.88;;;;;;;;;;5015788;28;20465;-80
2021/12/31 03:32:48;;;;;;;188.77;77.60;;;;;;;;;;5016168;28;20064;-80
2021/12/31 03:35:15;;;;;;;143.13;54.78;;;;;;;;;;5016228;28;20029;-80
2021/12/31 03:37:41;;;;;;;129.98;52.10;;;;;;;;;;5033921;28;20431;-80
2021/12/31 03:40:08;;;;;;;116.32;49.67;;;;;;;;;;5016224;28;20040;-80
2021/12/31 03:42:34;;;;;;;117.00;47.13;;;;;;;;;;5015997;28;20111;-80
2021/12/31 03:45:00;;;;;;;116.03;44.60;;;;;;;;;;5016138;28;20124;-80
2021/12/31 03:47:26;;;;;;;103.22;41.33;;;;;;;;;;5016062;28;20029;-80
2021/12/31 03:49:53;;;;;;;101.43;42.20;;;;;;;;;;5033690;28;20505;-80
2021/12/31 03:52:19;;;;;;;91.70;35.47;;;;;;;;;;5015966;28;20033;-80
2021/12/31 03:54:45;;;;;;;93.13;37.42;;;;;;;;;;5016056;28;20030;-81
2021/12/31 03:57:11;;;;;;;79.88;35.78;;;;;;;;;;5016079;28;20060;-80
2021/12/31 03:59:38;;;;;;;93.47;37.95;;;;;;;;;;5016003;28;20057;-81
2021/12/31 04:02:04;;;;;;;75.93;31.73;;;;;;;;;;5033782;28;20034;-81
2021/12/31 04:04:30;;;;;;;82.43;29.63;;;;;;;;;;5016008;28;20046;-81
2021/12/31 04:06:57;;;;;;;69.95;28.38;;;;;;;;;;5033602;28;20080;-83
2021/12/31 04:09:23;;;;;;;59.05;26.55;;;;;;;;;;5015703;28;20439;-81
2021/12/31 04:11:49;;;;;;;58.00;26.50;;;;;;;;;;5033660;28;20044;-81
2021/12/31 04:14:16;;;;;;;65.15;28.98;;;;;;;;;;5016394;28;20030;-81
2021/12/31 04:16:42;;;;;;;91.20;36.15;;;;;;;;;;5034052;28;20052;-81
2021/12/31 04:19:08;;;;;;;86.15;34.95;;;;;;;;;;5033665;28;20104;-81
2021/12/31 04:21:35;;;;;;;75.72;31.17;;;;;;;;;;5015809;28;20040;-82
2021/12/31 04:24:07;;;;;;;82.15;33.72;;;;;;;;;;5015507;28;20061;-82
2021/12/31 04:26:34;;;;;;;80.40;32.50;;;;;;;;;;5015787;28;20033;-82
2021/12/31 04:29:00;;;;;;;75.68;30.65;;;;;;;;;;5015834;28;20037;-82
2021/12/31 04:31:26;;;;;;;74.65;30.10;;;;;;;;;;5015768;28;20116;-83
2021/12/31 04:33:53;;;;;;;74.72;30.45;;;;;;;;;;5033491;28;20064;-82
2021/12/31 04:36:19;;;;;;;74.25;30.85;;;;;;;;;;5015596;28;20033;-82
2021/12/31 04:38:45;;;;;;;83.63;37.55;;;;;;;;;;5015978;28;20115;-83
2021/12/31 04:41:11;;;;;;;81.40;41.20;;;;;;;;;;5018680;28;20506;-83
2021/12/31 04:43:38;;;;;;;74.05;36.45;;;;;;;;;;5037237;28;20041;-82
2021/12/31 04:46:04;;;;;;;84.32;39.58;;;;;;;;;;5019505;28;20118;-83
2021/12/31 04:48:30;;;;;;;101.65;45.65;;;;;;;;;;5019330;28;20034;-83
2021/12/31 04:50:57;;;;;;;96.90;47.33;;;;;;;;;;5019385;28;20033;-83
2021/12/31 04:53:23;;;;;;;108.88;49.65;;;;;;;;;;5019242;28;20061;-83
2021/12/31 04:55:50;;;;;;;150.52;65.22;;;;;;;;;;5019365;28;20029;-83
2021/12/31 04:58:16;;;;;;;214.18;91.80;;;;;;;;;;5019156;28;20480;-83
2021/12/31 05:00:43;;;;;;;278.85;115.63;;;;;;;;;;5019083;28;20033;-83
2021/12/31 05:03:10;;;;;;;250.55;109.53;;;;;;;;;;5018999;28;20030;-83
2021/12/31 05:05:36;;;;;;;237.85;99.63;;;;;;;;;;5019113;28;20038;-83
2021/12/31 05:08:03;;;;;;;219.88;91.53;;;;;;;;;;5018768;28;20603;-83
2021/12/31 05:10:31;;;;;;;223.93;95.88;;;;;;;;;;5019014;28;20037;-82
2021/12/31 05:12:58;;;;;;;202.05;89.68;;;;;;;;;;5036882;28;20030;-83
2021/12/31 05:15:31;;;;;;;193.48;85.32;;;;;;;;;;5018889;28;20388;-83
2021/12/31 05:17:58;;;;;;;191.88;83.20;;;;;;;;;;5018926;28;20172;-83
2021/12/31 05:20:24;;;;;;;174.57;72.78;;;;;;;;;;5018754;28;20033;-83
2021/12/31 05:22:52;;;;;;;163.77;69.47;;;;;;;;;;5018760;28;20044;-83
2021/12/31 05:25:19;;;;;;;150.05;71.55;;;;;;;;;;5018726;28;20029;-83
2021/12/31 05:27:45;;;;;;;148.65;71.68;;;;;;;;;;5018997;28;20040;-83
2021/12/31 05:30:12;;;;;;;160.68;82.78;;;;;;;;;;5018753;28;20388;-83
2021/12/31 05:32:38;;;;;;;150.43;67.90;;;;;;;;;;5018109;28;20057;-83
2021/12/31 05:35:04;;;;;;;143.15;70.10;;;;;;;;;;5036282;28;20113;-83
2021/12/31 05:37:31;;;;;;;137.85;66.40;;;;;;;;;;5036107;28;20104;-83
2021/12/31 05:39:58;;;;;;;115.05;56.45;;;;;;;;;;5018448;28;20037;-83
2021/12/31 05:42:25;;;;;;;115.45;53.03;;;;;;;;;;5018260;28;20500;-83
2021/12/31 05:44:51;;;;;;;98.38;44.72;;;;;;;;;;5018384;28;20137;-83
2021/12/31 05:47:17;;;;;;;84.20;42.67;;;;;;;;;;5018048;28;20034;-84
2021/12/31 05:49:45;;;;;;;80.72;36.60;;;;;;;;;;5018301;28;20476;-84
2021/12/31 05:52:12;;;;;;;72.22;35.80;;;;;;;;;;5035119;28;20129;-84
2021/12/31 05:54:38;;;;;;;64.63;29.45;;;;;;;;;;5018107;28;20033;-84
2021/12/31 05:57:04;;;;;;;56.67;25.48;;;;;;;;;;5035953;28;20029;-84
2021/12/31 05:59:30;;;;;;;58.22;26.40;;;;;;;;;;5018092;28;20036;-84
2021/12/31 06:01:57;;;;;;;50.92;22.23;;;;;;;;;;5035421;28;20052;-84
2021/12/31 06:04:23;;;;;;;35.35;15.88;;;;;;;;;;5018013;28;20030;-84
2021/12/31 06:06:49;;;;;;;36.58;14.27;;;;;;;;;;5017962;28;20036;-84
2021/12/31 06:09:16;;;;;;;29.38;13.13;;;;;;;;;;5017955;28;20084;-84
2021/12/31 06:11:42;;;;;;;23.48;11.38;;;;;;;;;;5035428;28;20099;-84
2021/12/31 06:14:10;;;;;;;24.55;10.93;;;;;;;;;;5017811;28;20040;-84
2021/12/31 06:16:41;;;;;;;22.25;11.15;;;;;;;;;;5017786;28;20137;-84
2021/12/31 06:19:08;;;;;;;28.25;11.40;;;;;;;;;;5018404;28;20037;-84
2021/12/31 06:21:34;;;;;;;19.98;9.15;;;;;;;;;;5017660;28;20035;-85
2021/12/31 06:24:01;;;;;;;18.38;7.70;;;;;;;;;;5017671;28;20101;-84
2021/12/31 06:26:27;;;;;;;19.40;8.60;;;;;;;;;;5017486;28;20434;-84
2021/12/31 06:28:54;;;;;;;16.48;7.40;;;;;;;;;;5017507;28;20055;-84
2021/12/31 06:31:20;;;;;;;17.00;6.45;;;;;;;;;;5035239;28;20417;-84
2021/12/31 06:33:46;;;;;;;15.68;7.72;;;;;;;;;;5017301;28;20053;-84
2021/12/31 06:36:12;;;;;;;37.47;16.40;;;;;;;;;;5017359;28;20033;-84
2021/12/31 06:38:39;;;;;;;38.83;18.33;;;;;;;;;;5017437;28;20472;-84
2021/12/31 06:41:05;;;;;;;31.73;14.75;;;;;;;;;;5035322;28;20029;-84
2021/12/31 06:43:31;;;;;;;45.40;21.33;;;;;;;;;;5017151;28;20045;-84
2021/12/31 06:45:57;;;;;;;34.30;16.83;;;;;;;;;;5017501;28;20045;-84
2021/12/31 06:48:24;;;;;;;39.72;17.67;;;;;;;;;;5017283;28;20033;-84
2021/12/31 06:50:50;;;;;;;27.10;14.65;;;;;;;;;;5034763;28;20109;-84
2021/12/31 06:53:17;;;;;;;28.85;14.23;;;;;;;;;;5017081;28;20037;-84
2021/12/31 06:55:43;;;;;;;26.65;13.48;;;;;;;;;;5017013;28;20033;-84
2021/12/31 06:58:09;;;;;;;23.98;11.05;;;;;;;;;;5017067;28;20034;-83
2021/12/31 07:00:36;;;;;;;14.27;5.93;;;;;;;;;;5016850;28;20029;-84
2021/12/31 07:03:06;;;;;;;14.98;6.35;;;;;;;;;;5016552;28;20036;-84
2021/12/31 07:05:32;;;;;;;14.55;5.78;;;;;;;;;;5034635;28;20472;-83
2021/12/31 07:07:59;;;;;;;12.35;5.22;;;;;;;;;;5016644;28;20033;-84
2021/12/31 07:10:25;;;;;;;10.73;4.47;;;;;;;;;;5016734;28;20483;-83
2021/12/31 07:12:56;;;;;;;10.05;4.13;;;;;;;;;;5016781;28;20095;-84
2021/12/31 07:15:22;;;;;;;9.55;4.20;;;;;;;;;;5016806;28;20132;-83
2021/12/31 07:17:48;;;;;;;11.88;4.20;;;;;;;;;;5016649;28;20029;-84
2021/12/31 07:20:14;;;;;;;10.23;4.93;;;;;;;;;;5016925;28;20120;-83
2021/12/31 07:22:41;;;;;;;17.48;6.13;;;;;;;;;;5016503;28;20124;-83
2021/12/31 07:25:07;;;;;;;10.68;4.78;;;;;;;;;;5016513;28;20096;-84
2021/12/31 07:27:33;;;;;;;8.88;4.15;;;;;;;;;;5016435;28;20120;-83
2021/12/31 07:30:00;;;;;;;14.93;6.20;;;;;;;;;;5016350;28;20595;-83
2021/12/31 07:32:27;;;;;;;16.75;6.22;;;;;;;;;;5016189;28;20053;-84
2021/12/31 07:34:53;;;;;;;17.13;6.80;;;;;;;;;;5016476;28;20412;-83
2021/12/31 07:37:19;;;;;;;15.05;6.43;;;;;;;;;;5016263;28;20036;-83
2021/12/31 07:39:48;;;;;;;13.77;7.00;;;;;;;;;;5016226;28;20040;-83
2021/12/31 07:42:14;;;;;;;13.43;6.65;;;;;;;;;;5016154;28;20044;-84
2021/12/31 07:44:41;;;;;;;18.88;8.20;;;;;;;;;;5016303;28;20041;-83
2021/12/31 07:47:07;;;;;;;24.80;8.90;;;;;;;;;;5016202;28;20051;-84
2021/12/31 07:49:33;;;;;;;18.15;8.77;;;;;;;;;;5016158;28;20548;-83
2021/12/31 07:52:00;;;;;;;25.48;9.23;;;;;;;;;;5016234;28;20083;-84
2021/12/31 07:54:26;;;;;;;19.23;8.57;;;;;;;;;;5015908;28;20057;-84
2021/12/31 07:56:52;;;;;;;25.15;8.98;;;;;;;;;;5016125;28;20040;-84
2021/12/31 07:59:18;;;;;;;19.77;9.23;;;;;;;;;;5016161;28;20100;-83
2021/12/31 08:01:45;;;;;;;29.85;10.80;;;;;;;;;;5016006;28;20120;-83
2021/12/31 08:04:11;;;;;;;24.77;11.35;;;;;;;;;;5033695;28;20037;-84
2021/12/31 08:06:37;;;;;;;33.05;14.07;;;;;;;;;;5015954;28;20409;-83
2021/12/31 08:09:03;;;;;;;27.15;11.85;;;;;;;;;;5015953;28;20092;-83
2021/12/31 08:11:30;;;;;;;31.67;12.55;;;;;;;;;;5016037;28;20025;-83
2021/12/31 08:13:56;;;;;;;24.52;11.70;;;;;;;;;;5015787;28;20041;-83
2021/12/31 08:16:22;;;;;;;25.92;11.45;;;;;;;;;;5019401;28;20025;-83
2021/12/31 08:18:49;;;;;;;22.92;10.52;;;;;;;;;;5037804;28;20034;-84
2021/12/31 08:21:16;;;;;;;26.67;10.82;;;;;;;;;;5019858;28;20029;-84
2021/12/31 08:23:42;;;;;;;26.77;12.20;;;;;;;;;;5019881;28;20033;-83
2021/12/31 08:26:08;;;;;;;27.52;13.88;;;;;;;;;;5019847;28;20030;-84
2021/12/31 08:28:34;;;;;;;33.53;15.48;;;;;;;;;;5037696;28;20025;-83
2021/12/31 08:31:01;;;;;;;38.47;17.50;;;;;;;;;;5037919;28;20539;-84
2021/12/31 08:33:27;;;;;;;35.58;16.80;;;;;;;;;;5037039;28;20061;-83
2021/12/31 08:35:55;;;;;;;37.35;16.45;;;;;;;;;;5019566;28;20484;-84
2021/12/31 08:38:21;;;;;;;35.83;16.15;;;;;;;;;;5019601;28;20045;-84
2021/12/31 08:40:48;;;;;;;40.47;18.45;;;;;;;;;;5019555;28;20032;-84
2021/12/31 08:43:14;;;;;;;36.63;17.65;;;;;;;;;;5037305;28;20045;-84
2021/12/31 08:45:40;;;;;;;38.72;18.73;;;;;;;;;;5019509;28;20045;-84
2021/12/31 08:48:07;;;;;;;39.35;17.55;;;;;;;;;;5019260;28;20025;-84
2021/12/31 08:50:33;;;;;;;36.80;16.48;;;;;;;;;;5019230;28;20150;-84
2021/12/31 08:53:00;;;;;;;35.10;16.33;;;;;;;;;;5019357;28;20060;-84
2021/12/31 08:55:26;;;;;;;38.42;16.98;;;;;;;;;;5019275;28;20030;-83
2021/12/31 08:57:52;;;;;;;34.17;14.02;;;;;;;;;;5019207;28;20091;-83
2021/12/31 09:00:19;;;;;;;34.08;15.20;;;;;;;;;;5019154;28;20040;-83
2021/12/31 09:02:46;;;;;;;39.15;17.02;;;;;;;;;;5019175;28;20124;-84
2021/12/31 09:05:13;;;;;;;39.47;17.52;;;;;;;;;;5018764;28;20057;-84
2021/12/31 09:07:39;;;;;;;40.53;19.67;;;;;;;;;;5036751;28;20056;-83
2021/12/31 09:10:07;;;;;;;59.47;28.23;;;;;;;;;;5018955;28;20029;-84
2021/12/31 09:12:34;;;;;;;64.70;30.48;;;;;;;;;;5019039;28;20558;-84
2021/12/31 09:15:00;;;;;;;77.13;35.92;;;;;;;;;;5019038;28;20041;-83
2021/12/31 09:17:26;;;;;;;78.75;36.40;;;;;;;;;;5018880;28;20029;-83
2021/12/31 09:19:53;;;;;;;92.32;42.53;;;;;;;;;;5018882;28;20040;-83
2021/12/31 09:22:19;;;;;;;85.15;40.10;;;;;;;;;;5018731;28;20125;-83
2021/12/31 09:24:45;;;;;;;87.68;42.45;;;;;;;;;;5018685;28;20034;-83
2021/12/31 09:27:12;;;;;;;91.32;44.45;;;;;;;;;;5018556;28;20092;-83
2021/12/31 09:29:38;;;;;;;117.28;54.65;;;;;;;;;;5018701;28;20103;-83
2021/12/31 09:32:05;;;;;;;116.25;51.35;;;;;;;;;;5018531;28;20056;-83
2021/12/31 09:34:31;;;;;;;126.85;60.67;;;;;;;;;;5036422;28;20034;-83
2021/12/31 09:36:57;;;;;;;158.70;76.63;;;;;;;;;;5036063;28;20030;-83
2021/12/31 09:39:23;;;;;;;198.98;93.68;;;;;;;;;;5036689;28;20034;-83
2021/12/31 09:41:51;;;;;;;268.02;124.32;;;;;;;;;;5035948;28;20049;-83
2021/12/31 09:44:21;;;;;;;287.73;139.35;;;;;;;;;;5018332;28;20092;-83
2021/12/31 09:46:47;;;;;;;385.25;192.65;;;;;;;;;;5018324;28;20112;-83
2021/12/31 09:49:13;;;;;;;450.15;235.95;;;;;;;;;;5018171;28;20033;-83
2021/12/31 09:51:43;;;;;;;454.98;244.43;;;;;;;;;;5018399;28;20032;-83
2021/12/31 09:54:10;;;;;;;505.85;263.15;;;;;;;;;;5018253;28;20033;-83
2021/12/31 09:56:39;;;;;;;546.38;295.02;;;;;;;;;;5036006;28;20104;-83
2021/12/31 09:59:06;;;;;;;557.28;310.60;;;;;;;;;;5018125;28;20538;-83
2021/12/31 10:01:32;;;;;;;589.00;328.67;;;;;;;;;;5035598;28;20033;-82
2021/12/31 10:04:04;;;;;;;621.00;361.85;;;;;;;;;;5017951;28;20133;-83
2021/12/31 10:06:30;;;;;;;622.70;355.00;;;;;;;;;;5017989;28;20052;-83
2021/12/31 10:09:02;;;;;;;624.92;348.25;;;;;;;;;;5035400;28;20091;-83
2021/12/31 10:11:28;;;;;;;574.42;320.23;;;;;;;;;;5017944;28;20463;-83
2021/12/31 10:13:55;;;;;;;574.22;317.02;;;;;;;;;;5017710;28;20034;-84
2021/12/31 10:16:21;;;;;;;541.13;288.55;;;;;;;;;;5017743;28;20037;-83
2021/12/31 10:18:48;;;;;;;516.55;273.23;;;;;;;;;;5017772;28;20100;-83
2021/12/31 10:21:19;;;;;;;426.88;220.20;;;;;;;;;;5017710;28;20029;-83
2021/12/31 10:23:47;;;;;;;412.17;214.45;;;;;;;;;;5017614;28;20038;-83
2021/12/31 10:26:20;;;;;;;386.20;199.25;;;;;;;;;;5017647;28;20034;-83
2021/12/31 10:28:56;;;;;;;337.35;164.77;;;;;;;;;;5017500;28;20060;-83
2021/12/31 10:31:22;;;;;;;281.02;134.07;;;;;;;;;;5017474;28;20044;-83
2021/12/31 10:33:49;;;;;;;260.13;130.25;;;;;;;;;;5017281;28;20049;-83
2021/12/31 10:36:36;;;;;;;256.20;122.85;;;;;;;;;;5017492;28;20042;-83
2021/12/31 10:39:14;;;;;;;204.32;99.88;;;;;;;;;;5016636;28;20033;-83
2021/12/31 10:41:41;;;;;;;151.20;73.10;;;;;;;;;;5017411;28;20040;-83
2021/12/31 10:44:07;;;;;;;127.28;57.47;;;;;;;;;;5035118;28;20119;-83
2021/12/31 10:46:33;;;;;;;95.30;45.85;;;;;;;;;;5017051;28;20064;-83
2021/12/31 10:49:06;;;;;;;85.57;40.97;;;;;;;;;;5034717;28;20498;-83
2021/12/31 10:51:33;;;;;;;95.47;42.35;;;;;;;;;;5035229;28;20030;-83
2021/12/31 10:54:16;;;;;;;102.45;44.83;;;;;;;;;;5017164;28;20037;-83
2021/12/31 10:56:42;;;;;;;108.68;45.22;;;;;;;;;;5017330;28;20113;-83
2021/12/31 10:59:08;;;;;;;103.75;47.60;;;;;;;;;;5017064;28;20061;-83
2021/12/31 11:01:34;;;;;;;101.93;45.78;;;;;;;;;;5034463;28;20037;-83
2021/12/31 11:04:01;;;;;;;98.40;43.60;;;;;;;;;;5016862;28;20092;-83
2021/12/31 11:06:27;;;;;;;84.97;43.45;;;;;;;;;;5016882;28;20056;-83
2021/12/31 11:08:55;;;;;;;87.28;41.92;;;;;;;;;;5016791;28;20029;-82
2021/12/31 11:11:24;;;;;;;80.85;37.25;;;;;;;;;;5016821;28;20040;-83
2021/12/31 11:13:51;;;;;;;72.97;37.83;;;;;;;;;;5034504;28;20041;-83
2021/12/31 11:16:17;;;;;;;67.13;30.98;;;;;;;;;;5016625;28;20396;-83
2021/12/31 11:18:44;;;;;;;58.05;30.50;;;;;;;;;;5016642;28;20037;-83
2021/12/31 11:21:12;;;;;;;61.90;29.60;;;;;;;;;;5034223;28;20107;-82
2021/12/31 11:23:40;;;;;;;42.08;21.27;;;;;;;;;;5016764;28;20096;-82
2021/12/31 11:26:08;;;;;;;35.75;17.75;;;;;;;;;;5000515;28;20041;-83
2021/12/31 11:28:42;;;;;;;26.08;13.20;;;;;;;;;;5016539;28;20034;-83
2021/12/31 11:31:20;;;;;;;29.55;11.75;;;;;;;;;;5016426;28;20042;-83
2021/12/31 11:33:46;;;;;;;23.83;9.77;;;;;;;;;;5016422;28;20058;-83
2021/12/31 11:36:13;;;;;;;33.08;10.30;;;;;;;;;;5016353;28;20395;-82
2021/12/31 11:38:40;;;;;;;28.23;12.13;;;;;;;;;;5016393;28;20049;-83
2021/12/31 11:41:25;;;;;;;35.30;13.27;;;;;;;;;;5034094;28;20101;-83
2021/12/31 11:44:05;;;;;;;48.20;21.63;;;;;;;;;;5034181;28;20537;-83
2021/12/31 11:46:33;;;;;;;48.97;22.83;;;;;;;;;;5016227;28;20034;-83
2021/12/31 11:49:00;;;;;;;55.92;22.42;;;;;;;;;;5015692;28;20040;-82
2021/12/31 11:51:36;;;;;;;72.55;31.38;;;;;;;;;;5016066;28;20090;-83
2021/12/31 11:54:04;;;;;;;94.68;38.33;;;;;;;;;;5016561;28;20033;-84
2021/12/31 11:56:45;;;;;;;75.50;32.00;;;;;;;;;;5016129;28;20036;-84
2021/12/31 11:59:16;;;;;;;67.32;30.77;;;;;;;;;;5016008;28;20128;-84
2021/12/31 12:01:48;;;;;;;67.78;29.13;;;;;;;;;;5016102;28;20025;-83
2021/12/31 12:04:26;;;;;;;58.42;28.38;;;;;;;;;;5015953;28;20072;-84
2021/12/31 12:07:05;;;;;;;69.57;36.80;;;;;;;;;;5016028;28;20033;-84
2021/12/31 12:09:37;;;;;;;85.72;44.78;;;;;;;;;;5015844;28;20041;-84
2021/12/31 12:12:07;;;;;;;92.15;47.97;;;;;;;;;;5015881;28;20029;-84
2021/12/31 12:14:38;;;;;;;79.68;41.22;;;;;;;;;;5016188;28;20366;-84
2021/12/31 12:17:04;;;;;;;51.55;25.52;;;;;;;;;;5033726;28;20468;-84
2021/12/31 12:19:46;;;;;;;39.10;18.83;;;;;;;;;;5016037;28;20105;-84
2021/12/31 12:22:31;;;;;;;69.45;30.30;;;;;;;;;;5015848;28;20557;-84
2021/12/31 12:24:58;;;;;;;82.47;35.47;;;;;;;;;;5033650;28;20044;-84
2021/12/31 12:27:25;;;;;;;75.70;32.88;;;;;;;;;;5015860;28;20036;-84
2021/12/31 12:29:52;;;;;;;70.65;33.30;;;;;;;;;;5033296;28;20100;-84
2021/12/31 12:32:30;;;;;;;64.65;29.60;;;;;;;;;;5015661;28;20053;-84
2021/12/31 12:34:57;;;;;;;57.05;26.23;;;;;;;;;;5015872;28;20034;-84
2021/12/31 12:37:30;;;;;;;50.95;23.50;;;;;;;;;;5015704;28;20036;-84
2021/12/31 12:40:04;;;;;;;44.63;20.10;;;;;;;;;;5033692;28;20100;-84
2021/12/31 12:42:30;;;;;;;41.90;19.45;;;;;;;;;;5015820;28;20475;-84
2021/12/31 12:44:57;;;;;;;43.78;19.05;;;;;;;;;;5015651;28;20041;-84
2021/12/31 12:47:24;;;;;;;40.92;18.55;;;;;;;;;;5033349;28;20041;-84
2021/12/31 12:49:57;;;;;;;45.60;18.88;;;;;;;;;;5015631;28;20029;-84
2021/12/31 12:52:23;;;;;;;48.80;20.88;;;;;;;;;;5015283;28;20037;-84
2021/12/31 12:54:49;;;;;;;47.95;19.77;;;;;;;;;;5015593;28;20034;-84
2021/12/31 12:57:25;;;;;;;46.53;19.75;;;;;;;;;;5033200;28;20026;-84
2021/12/31 12:59:52;;;;;;;45.30;17.17;;;;;;;;;;5033415;28;20040;-84
2021/12/31 13:02:40;;;;;;;44.00;17.67;;;;;;;;;;5018369;28;20036;-84
2021/12/31 13:05:07;;;;;;;45.75;20.65;;;;;;;;;;5019181;28;20036;-84
2021/12/31 13:07:33;;;;;;;42.90;20.15;;;;;;;;;;5018962;28;20034;-84
2021/12/31 13:10:06;;;;;;;44.90;19.65;;;;;;;;;;5018927;28;20040;-84
2021/12/31 13:12:37;;;;;;;49.42;20.40;;;;;;;;;;5036806;28;20026;-84
2021/12/31 13:15:04;;;;;;;49.47;21.00;;;;;;;;;;5018925;28;20120;-84
2021/12/31 13:17:32;;;;;;;49.20;20.70;;;;;;;;;;5019083;28;20071;-84
2021/12/31 13:20:13;;;;;;;52.65;20.15;;;;;;;;;;5018871;28;20064;-84
2021/12/31 13:22:40;;;;;;;40.38;18.15;;;;;;;;;;5018825;28;20042;-84
2021/12/31 13:25:08;;;;;;;39.63;16.40;;;;;;;;;;5018836;28;20029;-84
2021/12/31 13:27:38;;;;;;;43.55;19.95;;;;;;;;;;5018710;28;20029;-84
2021/12/31 13:30:11;;;;;;;51.65;21.75;;;;;;;;;;5019560;28;20361;-84
2021/12/31 13:32:38;;;;;;;50.83;23.35;;;;;;;;;;5018509;28;20053;-84
2021/12/31 13:35:06;;;;;;;58.25;25.40;;;;;;;;;;5018466;28;20033;-84
2021/12/31 13:37:39;;;;;;;60.47;28.58;;;;;;;;;;5018588;28;20030;-84
2021/12/31 13:40:08;;;;;;;68.30;29.13;;;;;;;;;;5036213;28;20087;-84
2021/12/31 13:42:35;;;;;;;67.25;29.08;;;;;;;;;;5018373;28;20053;-84
2021/12/31 13:45:01;;;;;;;67.30;28.92;;;;;;;;;;5018552;28;20040;-83
2021/12/31 13:47:27;;;;;;;68.90;29.48;;;;;;;;;;5018127;28;20484;-84
2021/12/31 13:49:55;;;;;;;67.65;28.55;;;;;;;;;;5018304;28;20129;-84
2021/12/31 13:52:29;;;;;;;64.43;27.08;;;;;;;;;;5036063;28;20104;-85
2021/12/31 13:54:57;;;;;;;64.80;25.92;;;;;;;;;;5018227;28;20361;-84
2021/12/31 13:57:27;;;;;;;66.03;29.40;;;;;;;;;;5018017;28;20030;-84
2021/12/31 14:00:12;;;;;;;60.63;26.90;;;;;;;;;;5018197;28;20049;-84
2021/12/31 14:02:42;;;;;;;61.80;27.30;;;;;;;;;;5035909;28;20480;-84
2021/12/31 14:05:09;;;;;;;60.72;27.95;;;;;;;;;;5035782;28;20038;-84
2021/12/31 14:07:43;;;;;;;72.30;30.60;;;;;;;;;;5017885;28;20048;-84
2021/12/31 14:10:20;;;;;;;72.18;30.30;;;;;;;;;;5018038;28;20087;-84
2021/12/31 14:12:54;;;;;;;71.18;31.83;;;;;;;;;;5017064;28;20068;-84
2021/12/31 14:15:22;;;;;;;65.25;26.70;;;;;;;;;;5017849;28;20036;-84